Time;durP1;ratioP1;P1;durP2;ratioP2;P2;SDS_P1;SDS_P2;PMS_P1;PMS_P2;Temp;Humidity;BMP_temperature;BMP_pressure;BME280_temperature;BME280_humidity;BME280_pressure;Samples;Min_cycle;Max_cycle;Signal;HPM_P1;HPM_P2
2021/05/03 00:02:25;;;;;;;12.57;3.53;;;;;;;5.74;96.08;100962.25;5203008;28;20033;-79
2021/05/03 00:04:55;;;;;;;8.02;3.60;;;;;;;5.78;95.79;100962.22;5223726;28;20524;-79
2021/05/03 00:07:26;;;;;;;6.07;3.20;;;;;;;5.63;96.20;100969.25;5202510;28;20591;-78
2021/05/03 00:09:56;;;;;;;7.28;3.55;;;;;;;5.68;95.63;100962.28;5203812;28;20025;-76
2021/05/03 00:12:27;;;;;;;7.35;3.72;;;;;;;5.83;95.89;100960.47;5218960;28;20032;-77
2021/05/03 00:14:57;;;;;;;6.95;3.55;;;;;;;5.84;95.66;100957.00;5209748;28;20029;-79
2021/05/03 00:17:27;;;;;;;7.15;3.72;;;;;;;5.78;95.61;100963.94;5203363;28;20647;-78
2021/05/03 00:19:58;;;;;;;7.68;3.70;;;;;;;5.83;96.10;100959.59;5206192;28;20075;-79
2021/05/03 00:22:28;;;;;;;9.63;3.83;;;;;;;5.82;95.84;100965.66;5204935;28;20116;-78
2021/05/03 00:24:58;;;;;;;7.20;3.50;;;;;;;5.80;95.90;100959.63;5204924;28;20024;-78
2021/05/03 00:27:29;;;;;;;7.55;3.70;;;;;;;5.77;96.12;100964.81;5221175;28;20025;-77
2021/05/03 00:29:59;;;;;;;6.82;3.55;;;;;;;5.71;95.89;100960.53;5218787;28;20799;-77
2021/05/03 00:32:30;;;;;;;8.07;3.65;;;;;;;5.73;96.71;100958.78;5200779;28;20113;-77
2021/05/03 00:35:00;;;;;;;8.57;3.58;;;;;;;5.79;96.48;100965.69;5222676;28;20107;-78
2021/05/03 00:37:30;;;;;;;7.63;3.35;;;;;;;5.89;95.89;100959.53;5237916;23;20330;-91
2021/05/03 00:40:01;;;;;;;7.10;3.83;;;;;;;5.67;96.46;100966.63;5265985;28;20028;-89
2021/05/03 00:42:32;;;;;;;8.75;3.83;;;;;;;5.80;95.19;100959.63;5269409;28;20027;-90
2021/05/03 00:45:08;;;;;;;6.43;3.50;;;;;;;5.60;96.08;100961.53;5258549;28;20070;-90
2021/05/03 00:47:40;;;;;;;7.13;3.80;;;;;;;5.68;96.07;100970.06;5212682;28;20033;-91
2021/05/03 00:50:12;;;;;;;8.25;3.70;;;;;;;5.74;95.07;100963.09;5256062;22;20778;-80
2021/05/03 00:52:42;;;;;;;6.93;3.60;;;;;;;5.75;94.68;100972.59;5252391;28;20040;-79
2021/05/03 00:55:13;;;;;;;9.00;3.80;;;;;;;5.70;95.27;100973.50;5252745;28;20046;-79
2021/05/03 00:57:43;;;;;;;8.65;4.18;;;;;;;5.57;95.23;100975.34;5242483;28;20039;-80
2021/05/03 01:00:15;;;;;;;7.10;3.55;;;;;;;5.63;95.08;100974.44;5234043;28;20028;-80
2021/05/03 01:02:45;;;;;;;6.32;3.70;;;;;;;5.57;95.20;100980.53;5235486;28;20035;-78
2021/05/03 01:05:16;;;;;;;7.88;3.47;;;;;;;5.46;95.68;100984.09;5232771;28;20029;-78
2021/05/03 01:07:47;;;;;;;9.40;3.60;;;;;;;5.52;95.24;100979.72;5235184;28;20397;-80
2021/05/03 01:10:17;;;;;;;7.13;4.00;;;;;;;5.37;95.55;100984.19;5235617;28;20052;-78
2021/05/03 01:12:48;;;;;;;11.15;4.07;;;;;;;5.35;96.75;100985.91;5235407;28;20032;-78
2021/05/03 01:15:23;;;;;;;7.82;3.63;;;;;;;5.43;96.63;100987.56;5232005;28;20055;-79
2021/05/03 01:17:56;;;;;;;8.90;3.72;;;;;;;5.37;96.19;100991.09;5239908;28;20024;-80
2021/05/03 01:20:30;;;;;;;8.95;3.65;;;;;;;5.39;96.05;100988.47;5234808;28;20105;-79
2021/05/03 01:23:02;;;;;;;8.10;4.15;;;;;;;5.17;96.49;100986.06;5231660;28;20546;-78
2021/05/03 01:25:38;;;;;;;9.55;4.20;;;;;;;5.25;96.18;100979.09;5233326;28;20490;-79
2021/05/03 01:28:08;;;;;;;6.93;3.50;;;;;;;5.42;96.74;100982.41;5231563;28;20024;-78
2021/05/03 01:30:44;;;;;;;7.57;3.95;;;;;;;5.27;97.00;100979.06;5216935;28;20132;-79
2021/05/03 01:33:16;;;;;;;8.73;3.80;;;;;;;5.43;96.00;100991.91;5235369;28;20024;-79
2021/05/03 01:35:48;;;;;;;6.97;4.10;;;;;;;5.35;96.01;100983.31;5231758;28;20029;-79
2021/05/03 01:38:18;;;;;;;9.07;3.60;;;;;;;5.37;95.70;100988.50;5232749;28;20532;-79
2021/05/03 01:40:49;;;;;;;8.60;3.60;;;;;;;5.39;95.59;100982.44;5237105;28;20036;-79
2021/05/03 01:43:22;;;;;;;7.72;3.35;;;;;;;5.40;94.83;100991.94;5234830;28;20029;-80
2021/05/03 01:45:56;;;;;;;12.43;3.83;;;;;;;5.40;94.79;100997.97;5231275;28;20090;-80
2021/05/03 01:48:29;;;;;;;7.25;3.70;;;;;;;5.32;95.63;100993.72;5232291;28;20029;-79
2021/05/03 01:51:00;;;;;;;6.70;3.53;;;;;;;5.30;94.99;100995.47;5234386;28;20506;-79
2021/05/03 01:53:30;;;;;;;6.28;3.95;;;;;;;5.20;95.58;101004.19;5232599;28;20037;-79
2021/05/03 01:56:00;;;;;;;5.80;3.40;;;;;;;5.04;96.68;101005.16;5233419;28;20447;-79
2021/05/03 01:58:31;;;;;;;8.35;3.65;;;;;;;5.10;96.69;100993.88;5228972;28;20053;-79
2021/05/03 02:01:01;;;;;;;7.70;3.60;;;;;;;5.18;96.57;101002.47;5235219;28;20028;-79
2021/05/03 02:03:31;;;;;;;5.45;3.42;;;;;;;5.06;96.21;101006.00;5233741;28;20037;-78
2021/05/03 02:06:03;;;;;;;8.40;3.53;;;;;;;5.04;96.67;101002.56;5213077;28;20033;-78
2021/05/03 02:08:34;;;;;;;5.90;3.70;;;;;;;4.95;97.25;101005.22;5231053;28;20697;-80
2021/05/03 02:11:05;;;;;;;6.78;3.78;;;;;;;4.99;97.35;100999.13;5232072;28;20036;-80
2021/05/03 02:13:36;;;;;;;6.43;3.33;;;;;;;4.95;97.89;101005.22;5232042;28;20029;-79
2021/05/03 02:16:06;;;;;;;6.95;3.70;;;;;;;5.01;96.65;101002.56;5232124;28;20409;-80
2021/05/03 02:18:37;;;;;;;8.38;3.38;;;;;;;4.85;98.06;101000.09;5228889;28;20029;-79
2021/05/03 02:21:07;;;;;;;6.82;3.47;;;;;;;4.94;97.08;101000.06;5231152;28;20041;-79
2021/05/03 02:23:37;;;;;;;7.30;3.60;;;;;;;4.93;97.25;101006.06;5232240;28;20060;-78
2021/05/03 02:26:07;;;;;;;7.47;4.00;;;;;;;4.62;98.21;100995.03;5229613;28;20032;-79
2021/05/03 02:28:38;;;;;;;6.25;3.33;;;;;;;4.85;97.42;101008.75;5230606;28;20530;-79
2021/05/03 02:31:08;;;;;;;8.15;3.78;;;;;;;4.77;97.94;101013.09;5236050;28;20036;-80
2021/05/03 02:33:38;;;;;;;6.15;3.63;;;;;;;4.77;97.79;101010.50;5213299;28;20063;-80
2021/05/03 02:36:09;;;;;;;9.07;3.78;;;;;;;4.75;97.69;101007.06;5233253;28;20120;-80
2021/05/03 02:38:39;;;;;;;8.13;4.25;;;;;;;4.90;97.86;101019.94;5232193;28;20486;-79
2021/05/03 02:41:10;;;;;;;7.38;3.40;;;;;;;4.83;97.80;101013.03;5235909;28;20055;-79
2021/05/03 02:43:41;;;;;;;8.85;3.92;;;;;;;4.67;98.28;101019.16;5233495;28;20112;-79
2021/05/03 02:46:11;;;;;;;7.88;3.78;;;;;;;4.60;99.10;101019.22;5230938;28;20040;-80
2021/05/03 02:48:41;;;;;;;8.50;3.85;;;;;;;4.70;97.86;101021.75;5232026;28;20715;-80
2021/05/03 02:51:12;;;;;;;6.82;3.63;;;;;;;4.60;99.48;101033.00;5230611;28;20064;-80
2021/05/03 02:53:42;;;;;;;9.73;4.05;;;;;;;4.64;98.85;101031.28;5232237;28;20039;-79
2021/05/03 02:56:12;;;;;;;7.53;4.03;;;;;;;4.58;99.15;101024.41;5230679;28;20052;-80
2021/05/03 02:58:43;;;;;;;6.65;3.50;;;;;;;4.48;99.24;101021.84;5232371;28;20625;-79
2021/05/03 03:01:13;;;;;;;4.78;3.20;;;;;;;4.59;98.64;101033.88;5239344;28;20035;-79
2021/05/03 03:03:43;;;;;;;7.35;3.80;;;;;;;4.49;99.80;101028.75;5230184;28;20029;-79
2021/05/03 03:06:13;;;;;;;7.55;3.50;;;;;;;4.64;99.18;101036.47;5231951;28;20477;-80
2021/05/03 03:08:44;;;;;;;5.78;3.58;;;;;;;4.75;98.34;101035.53;5228912;28;20032;-80
2021/05/03 03:11:14;;;;;;;11.20;3.90;;;;;;;4.76;98.31;101032.06;5237929;28;20043;-80
2021/05/03 03:13:45;;;;;;;8.95;3.55;;;;;;;4.84;97.20;101042.41;5230038;28;20390;-80
2021/05/03 03:16:21;;;;;;;6.10;3.38;;;;;;;4.72;97.93;101038.16;5229180;28;20028;-79
2021/05/03 03:18:58;;;;;;;7.78;3.25;;;;;;;4.70;98.08;101041.59;5233413;28;20674;-79
2021/05/03 03:21:28;;;;;;;7.68;3.20;;;;;;;4.59;98.33;101046.81;5233887;28;20036;-80
2021/05/03 03:23:59;;;;;;;6.95;3.40;;;;;;;4.58;98.54;101047.69;5230124;28;20028;-79
2021/05/03 03:26:29;;;;;;;8.70;3.22;;;;;;;4.65;98.00;101046.78;5233038;28;20029;-79
2021/05/03 03:28:59;;;;;;;8.40;3.38;;;;;;;4.71;97.92;101044.19;5228861;28;20025;-79
2021/05/03 03:31:30;;;;;;;9.55;3.58;;;;;;;4.72;98.07;101042.44;5228107;28;20041;-79
2021/05/03 03:34:00;;;;;;;9.35;3.42;;;;;;;4.62;97.86;101044.22;5237381;28;20032;-80
2021/05/03 03:36:31;;;;;;;6.10;3.67;;;;;;;4.60;97.59;101043.38;5231645;28;20067;-80
2021/05/03 03:39:03;;;;;;;9.90;3.58;;;;;;;4.60;97.87;101039.94;5235626;28;20493;-80
2021/05/03 03:41:34;;;;;;;8.23;3.40;;;;;;;4.62;98.11;101043.38;5232584;28;20021;-80
2021/05/03 03:44:04;;;;;;;7.88;3.58;;;;;;;4.67;97.59;101044.19;5233367;28;20076;-79
2021/05/03 03:46:35;;;;;;;7.22;3.38;;;;;;;4.70;98.28;101049.38;5230249;28;20162;-80
2021/05/03 03:49:06;;;;;;;12.55;3.75;;;;;;;4.58;99.01;101052.00;5230850;28;20055;-80
2021/05/03 03:51:36;;;;;;;10.32;3.75;;;;;;;4.45;99.18;101048.59;5232247;28;20032;-80
2021/05/03 03:54:06;;;;;;;7.22;3.85;;;;;;;4.56;98.92;101040.78;5230557;28;20541;-80
2021/05/03 03:56:36;;;;;;;7.68;3.55;;;;;;;4.70;97.76;101045.06;5234157;28;20046;-80
2021/05/03 03:59:09;;;;;;;7.82;3.90;;;;;;;4.74;97.10;101056.25;5208189;28;20090;-79
2021/05/03 04:01:41;;;;;;;9.75;3.50;;;;;;;4.71;97.11;101057.13;5231926;28;20056;-80
2021/05/03 04:04:22;;;;;;;5.72;3.72;;;;;;;4.65;98.76;101053.72;5229281;28;20035;-80
2021/05/03 04:07:02;;;;;;;8.48;3.85;;;;;;;5.03;96.83;101049.19;5231366;28;20039;-79
2021/05/03 04:26:13;;;;;;;8.93;3.70;;;;;;;5.17;95.46;101052.56;5230321;28;20799;-81
2021/05/03 04:28:45;;;;;;;8.40;3.50;;;;;;;5.17;95.26;101058.59;5229812;28;20039;-80
2021/05/03 04:31:16;;;;;;;6.40;3.42;;;;;;;5.29;94.46;101057.69;5224643;28;20040;-80
2021/05/03 04:33:47;;;;;;;8.90;3.63;;;;;;;5.42;93.07;101063.59;5228809;28;20163;-79
2021/05/03 04:36:18;;;;;;;7.65;3.85;;;;;;;5.50;93.27;101061.84;5234306;28;20040;-79
2021/05/03 04:38:49;;;;;;;7.97;3.88;;;;;;;5.72;92.37;101059.94;5228271;28;20028;-79
2021/05/03 04:41:19;;;;;;;9.30;3.22;;;;;;;5.90;91.13;101065.84;5237631;28;20024;-79
2021/05/03 04:43:49;;;;;;;6.93;3.20;;;;;;;6.06;91.27;101067.44;5235171;28;20073;-81
2021/05/03 04:46:19;;;;;;;5.15;2.70;;;;;;;6.32;88.83;101072.34;5231009;28;20059;-80
2021/05/03 04:48:50;;;;;;;8.35;3.05;;;;;;;7.32;87.33;101066.72;5234406;28;20393;-81
2021/05/03 04:51:20;;;;;;;4.80;2.63;;;;;;;9.42;76.33;101057.50;5231696;28;20025;-82
2021/05/03 04:53:50;;;;;;;4.70;2.17;;;;;;;10.76;72.58;101063.59;5234432;28;20448;-81
2021/05/03 04:56:21;;;;;;;4.37;2.40;;;;;;;9.52;74.10;101065.06;5235980;28;20032;-82
2021/05/03 04:58:51;;;;;;;5.57;2.35;;;;;;;10.84;72.80;101063.38;5238462;28;20285;-82
2021/05/03 05:01:21;;;;;;;4.23;2.10;;;;;;;11.37;70.56;101059.09;5243685;28;20028;-81
2021/05/03 05:03:51;;;;;;;5.68;2.53;;;;;;;11.07;69.88;101064.41;5233752;28;20298;-81
2021/05/03 05:06:21;;;;;;;5.28;2.28;;;;;;;11.91;66.22;101066.94;5235935;28;20145;-79
2021/05/03 05:08:52;;;;;;;6.83;2.33;;;;;;;12.06;68.71;101064.69;5231449;28;20029;-80
2021/05/03 05:11:22;;;;;;;4.28;2.13;;;;;;;13.27;64.41;101062.00;5241105;28;20286;-80
2021/05/03 05:13:52;;;;;;;4.72;2.08;;;;;;;13.22;66.73;101051.66;5234528;28;20083;-79
2021/05/03 05:16:23;;;;;;;7.50;2.53;;;;;;;13.20;63.24;101065.78;5230624;28;20036;-79
2021/05/03 05:18:54;;;;;;;5.30;2.10;;;;;;;13.46;61.61;101065.63;5222206;28;20305;-79
2021/05/03 05:21:24;;;;;;;4.72;2.30;;;;;;;13.09;63.23;101068.78;5233709;28;20441;-80
2021/05/03 05:23:55;;;;;;;3.90;2.25;;;;;;;13.41;62.00;101064.94;5241257;28;20464;-80
2021/05/03 05:26:25;;;;;;;5.70;2.40;;;;;;;14.98;58.23;101064.25;5230956;28;20033;-80
2021/05/03 05:28:55;;;;;;;4.72;2.25;;;;;;;15.34;57.42;101062.59;5231390;28;20063;-79
2021/05/03 05:31:25;;;;;;;4.83;2.17;;;;;;;16.36;54.68;101062.75;5239279;28;20047;-79
2021/05/03 05:33:56;;;;;;;6.32;2.28;;;;;;;16.61;53.14;101068.50;5213172;28;20864;-80
2021/05/03 05:36:26;;;;;;;5.30;2.00;;;;;;;15.65;54.32;101068.09;5233671;28;20498;-80
2021/05/03 05:38:56;;;;;;;7.25;2.22;;;;;;;16.29;53.38;101071.91;5228293;28;20632;-79
2021/05/03 05:41:27;;;;;;;3.15;1.92;;;;;;;16.99;52.72;101068.13;5237744;28;20028;-80
2021/05/03 05:43:57;;;;;;;4.70;2.10;;;;;;;17.13;52.04;101068.25;5225786;28;20037;-79
2021/05/03 05:46:27;;;;;;;5.33;2.20;;;;;;;16.65;53.93;101064.75;5235657;28;20037;-80
2021/05/03 05:48:58;;;;;;;5.37;2.07;;;;;;;16.31;54.65;101062.13;5229401;28;20290;-79
2021/05/03 05:51:28;;;;;;;4.18;1.88;;;;;;;16.69;53.08;101062.81;5228658;28;20291;-79
2021/05/03 05:53:59;;;;;;;5.75;2.20;;;;;;;16.90;53.09;101066.00;5231155;28;20028;-79
2021/05/03 05:56:29;;;;;;;4.00;2.10;;;;;;;17.66;51.80;101060.84;5229838;28;20032;-80
2021/05/03 05:58:59;;;;;;;4.93;2.10;;;;;;;16.61;53.54;101064.97;5230069;28;20025;-80
2021/05/03 06:01:29;;;;;;;5.75;2.42;;;;;;;13.40;60.74;101069.34;5237160;28;20364;-79
2021/05/03 06:04:00;;;;;;;5.93;2.50;;;;;;;12.49;64.40;101083.25;5233319;28;20047;-79
2021/05/03 06:06:30;;;;;;;6.88;2.30;;;;;;;11.53;66.78;101078.66;5230689;28;20033;-80
2021/05/03 06:09:01;;;;;;;5.45;2.30;;;;;;;10.28;72.05;101085.81;5235487;28;20024;-79
2021/05/03 06:11:31;;;;;;;7.53;2.63;;;;;;;11.56;68.80;101080.31;5233273;28;20032;-78
2021/05/03 06:14:02;;;;;;;3.92;2.50;;;;;;;13.27;63.62;101075.97;5231469;28;20028;-79
2021/05/03 06:16:32;;;;;;;8.73;2.70;;;;;;;13.04;64.31;101068.13;5230213;28;20500;-80
2021/05/03 06:19:02;;;;;;;6.17;2.40;;;;;;;13.20;63.74;101068.41;5231737;28;20024;-80
2021/05/03 06:21:33;;;;;;;5.05;2.08;;;;;;;14.36;60.28;101067.09;5230645;28;20278;-80
2021/05/03 06:24:03;;;;;;;5.18;2.22;;;;;;;13.10;63.97;101077.53;5230591;28;20143;-80
2021/05/03 06:26:33;;;;;;;4.80;2.45;;;;;;;13.76;62.33;101072.28;5227113;28;20394;-79
2021/05/03 06:29:04;;;;;;;4.07;2.30;;;;;;;13.50;61.81;101077.69;5227484;28;20033;-78
2021/05/03 06:31:34;;;;;;;6.60;2.30;;;;;;;13.48;62.46;101074.28;5238696;28;20488;-79
2021/05/03 06:34:04;;;;;;;5.22;2.28;;;;;;;13.71;61.92;101069.00;5235046;28;20033;-79
2021/05/03 06:36:35;;;;;;;4.30;2.00;;;;;;;14.00;61.04;101066.00;5245727;22;20039;-78
2021/05/03 06:39:05;;;;;;;5.10;2.03;;;;;;;14.91;60.00;101069.88;5260289;28;20301;-78
2021/05/03 06:41:35;;;;;;;8.10;2.30;;;;;;;14.52;61.03;101068.16;5258253;28;20028;-79
2021/05/03 06:44:06;;;;;;;4.07;2.00;;;;;;;14.08;59.51;101067.38;5258380;28;20036;-77
2021/05/03 06:46:36;;;;;;;4.03;1.97;;;;;;;15.53;58.36;101065.22;5256709;28;20024;-78
2021/05/03 06:49:06;;;;;;;3.97;2.13;;;;;;;15.94;58.04;101067.53;5219030;28;20341;-78
2021/05/03 06:51:37;;;;;;;3.75;1.70;;;;;;;16.27;57.57;101062.34;5238067;28;20287;-78
2021/05/03 06:54:07;;;;;;;3.20;1.80;;;;;;;17.88;55.09;101058.72;5235484;28;20055;-78
2021/05/03 06:56:37;;;;;;;4.40;2.00;;;;;;;16.68;55.79;101059.31;5235061;28;20028;-78
2021/05/03 06:59:07;;;;;;;4.82;2.05;;;;;;;15.73;56.23;101060.66;5225285;28;20029;-78
2021/05/03 07:01:38;;;;;;;3.15;1.90;;;;;;;18.09;52.70;101038.06;5239825;28;20032;-78
2021/05/03 07:04:08;;;;;;;3.50;1.97;;;;;;;17.02;55.36;101053.91;5233708;28;20064;-78
2021/05/03 07:06:38;;;;;;;4.85;2.10;;;;;;;16.60;55.31;101052.72;5233321;28;20282;-78
2021/05/03 07:09:10;;;;;;;3.43;1.90;;;;;;;17.12;54.91;101057.78;5237983;28;20397;-78
2021/05/03 07:11:41;;;;;;;4.68;1.98;;;;;;;15.44;58.02;101061.22;5243109;28;20356;-78
2021/05/03 07:14:12;;;;;;;3.75;1.90;;;;;;;15.79;57.24;101065.66;5233597;28;20033;-78
2021/05/03 07:16:42;;;;;;;5.07;1.67;;;;;;;15.87;57.53;101065.28;5234117;28;20583;-78
2021/05/03 07:19:12;;;;;;;4.03;1.50;;;;;;;15.24;58.55;101065.69;5232881;28;20031;-78
2021/05/03 07:21:43;;;;;;;2.88;1.45;;;;;;;14.94;58.70;101077.63;5234233;28;20089;-78
2021/05/03 07:24:14;;;;;;;4.03;1.80;;;;;;;13.38;61.90;101073.78;5234429;28;20033;-78
2021/05/03 07:26:44;;;;;;;6.43;1.90;;;;;;;13.71;62.53;101071.63;5236560;28;20031;-78
2021/05/03 07:29:14;;;;;;;3.17;1.73;;;;;;;13.57;63.38;101079.19;5227330;28;20028;-78
2021/05/03 07:31:44;;;;;;;5.25;1.80;;;;;;;12.62;64.03;101071.44;5240067;28;20029;-77
2021/05/03 07:34:15;;;;;;;4.50;2.00;;;;;;;11.41;66.85;101089.50;5236493;28;20611;-78
2021/05/03 07:36:45;;;;;;;3.47;1.75;;;;;;;11.40;67.98;101076.44;5233165;28;20143;-79
2021/05/03 07:39:15;;;;;;;5.18;1.90;;;;;;;10.81;68.38;101086.97;5230885;28;20466;-77
2021/05/03 07:41:46;;;;;;;6.65;2.05;;;;;;;10.80;70.06;101080.00;5239698;28;20021;-78
2021/05/03 07:44:16;;;;;;;4.20;2.30;;;;;;;10.85;69.76;101079.00;5236093;28;20030;-77
2021/05/03 07:46:46;;;;;;;8.80;2.33;;;;;;;11.73;66.89;101078.91;5232886;28;20045;-78
2021/05/03 07:49:17;;;;;;;2.40;1.42;;;;;;;11.91;66.11;101077.44;5235834;28;20024;-78
2021/05/03 07:51:47;;;;;;;3.03;1.90;;;;;;;12.80;63.22;101073.38;5231841;28;20037;-78
2021/05/03 07:54:18;;;;;;;3.55;1.67;;;;;;;12.67;63.75;101084.38;5235248;28;20028;-79
2021/05/03 07:56:48;;;;;;;5.55;1.90;;;;;;;12.48;63.39;101089.41;5233882;28;20121;-78
2021/05/03 07:59:19;;;;;;;3.60;1.25;;;;;;;12.56;64.61;101087.41;5233391;28;20033;-78
2021/05/03 08:01:49;;;;;;;4.93;1.77;;;;;;;12.39;64.23;101083.63;5242090;28;20068;-78
2021/05/03 08:04:20;;;;;;;3.28;1.60;;;;;;;13.32;62.53;101078.41;5239303;28;20028;-78
2021/05/03 08:06:57;;;;;;;5.72;1.80;;;;;;;12.75;63.45;101087.56;5235981;28;20409;-78
2021/05/03 08:09:28;;;;;;;2.15;1.40;;;;;;;11.81;65.69;101089.13;5216490;28;20021;-78
2021/05/03 08:11:58;;;;;;;4.20;1.30;;;;;;;11.14;67.72;101092.09;5246415;28;20028;-78
2021/05/03 08:14:28;;;;;;;5.15;1.73;;;;;;;10.70;69.52;101094.25;5242408;28;20436;-79
2021/05/03 08:17:04;;;;;;;3.90;1.73;;;;;;;10.67;70.05;101099.59;5242341;28;20053;-79
2021/05/03 08:19:35;;;;;;;5.05;1.92;;;;;;;10.49;70.31;101097.47;5245019;28;21310;-79
2021/05/03 08:22:05;;;;;;;3.00;1.70;;;;;;;9.99;71.81;101110.94;5243133;28;20453;-79
2021/05/03 08:24:36;;;;;;;6.15;1.88;;;;;;;9.77;73.58;101101.88;5247815;28;20020;-79
2021/05/03 08:27:07;;;;;;;4.55;1.85;;;;;;;9.65;75.74;101115.25;5244960;28;20068;-79
2021/05/03 08:29:37;;;;;;;5.40;1.75;;;;;;;9.75;75.17;101108.91;5238284;28;20024;-78
2021/05/03 08:32:08;;;;;;;2.90;1.42;;;;;;;9.66;74.94;101119.56;5245038;28;20037;-78
2021/05/03 08:34:39;;;;;;;4.10;1.27;;;;;;;9.46;74.30;101124.38;5239983;28;20024;-78
2021/05/03 08:37:09;;;;;;;4.90;1.40;;;;;;;9.63;75.00;101127.47;5239557;28;20044;-78
2021/05/03 08:39:40;;;;;;;3.35;1.20;;;;;;;9.52;74.44;101122.47;5244717;28;20025;-78
2021/05/03 08:42:13;;;;;;;4.45;1.30;;;;;;;9.73;74.70;101128.97;5241037;28;20320;-79
2021/05/03 08:44:46;;;;;;;2.85;1.30;;;;;;;9.30;75.57;101130.84;5223690;28;20563;-77
2021/05/03 08:47:17;;;;;;;3.17;1.48;;;;;;;9.26;77.25;101135.25;5237633;28;20163;-78
2021/05/03 08:54:52;;;;;;;4.63;1.83;;;;;;;9.12;83.12;101120.78;5237601;28;20024;-78
2021/05/03 08:57:23;;;;;;;6.25;2.05;;;;;;;9.14;83.91;101113.78;5239174;28;20033;-78
2021/05/03 08:59:53;;;;;;;3.50;2.00;;;;;;;9.31;83.63;101103.84;5239322;28;20036;-78
2021/05/03 09:02:24;;;;;;;3.97;2.30;;;;;;;9.10;83.08;101106.91;5242269;28;20035;-77
2021/05/03 09:04:54;;;;;;;5.07;2.40;;;;;;;9.27;85.50;101090.00;5236818;28;20029;-77
2021/05/03 09:07:24;;;;;;;5.05;2.40;;;;;;;9.56;83.79;101092.84;5239647;28;20078;-78
2021/05/03 09:09:55;;;;;;;9.15;3.05;;;;;;;10.28;82.73;101095.41;5236586;28;20021;-78
2021/05/03 09:12:25;;;;;;;6.20;2.53;;;;;;;10.44;79.05;101083.66;5243943;28;20090;-78
2021/05/03 09:14:59;;;;;;;5.25;2.72;;;;;;;10.46;78.12;101084.47;5235877;28;20224;-78
2021/05/03 09:17:35;;;;;;;5.47;2.70;;;;;;;10.69;78.49;101082.09;5245788;28;20397;-78
2021/05/03 09:20:07;;;;;;;5.65;2.72;;;;;;;11.63;76.69;101074.00;5244225;28;20471;-78
2021/05/03 09:22:53;;;;;;;4.35;2.78;;;;;;;11.51;77.03;101071.75;5243426;28;20090;-78
2021/05/03 09:28:13;;;;;;;7.75;3.95;;;;;;;11.16;74.85;101072.84;5239768;28;20560;-78
2021/05/03 09:30:48;;;;;;;5.70;3.70;;;;;;;12.30;73.29;101057.75;5228002;28;20048;-78
2021/05/03 09:33:28;;;;;;;7.15;3.95;;;;;;;11.28;73.27;101061.13;5222715;28;20653;-78
2021/05/03 09:36:09;;;;;;;5.28;3.35;;;;;;;11.85;72.74;101057.56;5226592;28;20502;-78
2021/05/03 09:38:43;;;;;;;5.10;3.20;;;;;;;12.12;70.20;101061.84;5237570;28;20032;-78
2021/05/03 09:41:21;;;;;;;9.15;5.35;;;;;;;12.50;70.54;101057.91;5244725;28;20028;-78
2021/05/03 09:44:05;;;;;;;10.18;5.20;;;;;;;12.85;71.70;101050.47;5244453;28;20039;-78
2021/05/03 09:46:40;;;;;;;5.22;3.20;;;;;;;12.94;69.01;101055.41;5243327;28;20128;-78
2021/05/03 09:49:18;;;;;;;5.47;3.30;;;;;;;12.48;69.31;101052.72;5228279;28;20115;-78
2021/05/03 09:51:58;;;;;;;3.95;2.80;;;;;;;12.13;70.88;101049.63;5225959;28;20068;-78
2021/05/03 09:54:31;;;;;;;4.85;3.13;;;;;;;12.93;68.62;101037.97;5235512;28;20042;-78
2021/05/03 09:57:06;;;;;;;4.47;2.88;;;;;;;12.67;69.05;101032.78;5243123;28;20028;-78
2021/05/03 09:59:45;;;;;;;6.13;2.63;;;;;;;13.03;68.03;101028.84;5211538;28;20031;-78
2021/05/03 10:02:21;;;;;;;5.38;2.72;;;;;;;12.86;67.09;101035.59;5225583;28;20111;-78
2021/05/03 10:05:04;;;;;;;5.32;3.00;;;;;;;12.19;68.35;101026.69;5241901;28;20033;-78
2021/05/03 10:07:38;;;;;;;7.32;3.00;;;;;;;12.61;70.17;101025.16;5242371;28;20607;-78
2021/05/03 10:10:18;;;;;;;4.55;2.60;;;;;;;13.24;68.56;101010.47;5228910;28;20398;-78
2021/05/03 10:12:50;;;;;;;5.95;3.10;;;;;;;12.61;68.55;101014.66;5222885;28;20055;-77
2021/05/03 10:15:21;;;;;;;8.07;3.20;;;;;;;13.44;66.96;101000.00;5231995;28;20425;-77
2021/05/03 10:17:51;;;;;;;4.65;3.30;;;;;;;13.06;65.79;100997.22;5235126;28;20028;-77
2021/05/03 10:20:22;;;;;;;8.05;3.47;;;;;;;13.46;67.00;100992.97;5222426;28;20020;-78
2021/05/03 10:22:55;;;;;;;5.88;3.20;;;;;;;13.72;67.74;100987.47;5222535;28;20122;-77
2021/05/03 10:25:26;;;;;;;6.90;3.25;;;;;;;14.44;67.01;100973.78;5205424;28;20112;-77
2021/05/03 10:27:58;;;;;;;4.95;3.00;;;;;;;14.42;64.03;100966.94;5221865;28;20163;-78
2021/05/03 10:30:28;;;;;;;4.97;3.00;;;;;;;14.01;66.00;100978.34;5232732;28;20103;-78
2021/05/03 10:33:09;;;;;;;4.57;2.65;;;;;;;14.07;63.81;100976.31;5234984;28;20084;-77
2021/05/03 10:35:48;;;;;;;4.68;3.00;;;;;;;14.02;64.38;100972.19;5225275;28;20512;-77
2021/05/03 10:38:30;;;;;;;6.20;3.00;;;;;;;13.98;62.60;100970.59;5239991;28;20029;-77
2021/05/03 10:41:03;;;;;;;7.10;2.90;;;;;;;13.83;63.63;100973.88;5211292;28;20052;-77
2021/05/03 10:43:40;;;;;;;6.03;2.70;;;;;;;13.80;61.94;100958.25;5241859;28;20027;-77
2021/05/03 10:49:10;;;;;;;4.25;2.60;;;;;;;13.36;61.49;100948.72;5226329;28;20438;-77
2021/05/03 10:55:03;;;;;;;4.88;2.40;;;;;;;13.60;63.01;100947.75;5240544;28;20035;-79
2021/05/03 10:57:30;;;;;;;5.03;2.70;;;;;;;14.11;61.18;100940.25;5217983;28;20040;-77
2021/05/03 11:00:04;;;;;;;5.03;2.88;;;;;;;14.15;60.67;100932.16;5214546;28;20143;-77
2021/05/03 11:02:37;;;;;;;3.67;2.70;;;;;;;14.28;61.24;100932.50;5239150;28;20059;-79
2021/05/03 11:05:14;;;;;;;4.70;2.38;;;;;;;14.15;60.59;100928.66;5235428;28;20032;-78
2021/05/03 11:08:02;;;;;;;6.85;2.45;;;;;;;13.81;58.00;100925.81;5214437;28;20075;-78
2021/05/03 11:11:05;;;;;;;4.35;2.53;;;;;;;14.29;58.23;100926.31;5232811;28;20438;-78
2021/05/03 11:13:47;;;;;;;5.32;2.60;;;;;;;14.69;57.60;100918.28;5228100;28;20506;-78
2021/05/03 11:16:32;;;;;;;4.45;2.53;;;;;;;14.36;57.07;100927.72;5222791;28;20030;-78
2021/05/03 11:19:37;;;;;;;4.85;2.63;;;;;;;13.81;58.55;100920.56;5226911;28;20031;-78
2021/05/03 11:22:10;;;;;;;9.38;2.80;;;;;;;13.65;58.36;100924.75;5213065;28;20429;-78
2021/05/03 11:24:45;;;;;;;5.63;2.80;;;;;;;13.68;59.60;100920.22;5236768;28;20028;-78
2021/05/03 11:27:27;;;;;;;5.10;2.80;;;;;;;13.57;61.00;100918.97;5219226;28;20033;-78
2021/05/03 11:32:35;;;;;;;5.55;2.78;;;;;;;13.54;59.14;100905.97;5225128;28;20044;-77
2021/05/03 11:35:24;;;;;;;4.17;2.80;;;;;;;13.61;57.97;100910.88;5232978;28;20048;-78
2021/05/03 11:45:39;;;;;;;6.63;4.22;;;;;;;14.34;56.56;100903.28;5245982;28;20032;-79
2021/05/03 11:48:10;;;;;;;4.25;2.55;;;;;;;14.43;55.62;100895.00;5230131;28;20028;-79
2021/05/03 11:50:40;;;;;;;4.55;2.40;;;;;;;14.40;56.08;100890.72;5244269;28;20334;-79
2021/05/03 11:53:10;;;;;;;4.90;2.30;;;;;;;14.35;56.98;100891.84;5238755;28;20041;-79
2021/05/03 11:55:40;;;;;;;4.40;2.63;;;;;;;14.17;56.16;100892.69;5245171;28;20037;-79
2021/05/03 11:58:11;;;;;;;4.60;2.70;;;;;;;14.21;56.41;100894.25;5244749;28;20024;-79
2021/05/03 12:00:42;;;;;;;4.55;2.80;;;;;;;14.15;56.64;100881.34;5247744;28;20035;-79
2021/05/03 12:03:14;;;;;;;4.60;2.40;;;;;;;14.29;56.66;100879.81;5227160;28;20544;-78
2021/05/03 12:05:46;;;;;;;5.85;2.53;;;;;;;14.45;56.22;100878.19;5245896;28;20043;-78
2021/05/03 12:08:18;;;;;;;3.95;2.50;;;;;;;14.73;56.54;100869.88;5246175;28;20104;-79
2021/05/03 12:10:48;;;;;;;5.35;2.60;;;;;;;14.54;56.25;100874.28;5247763;28;20024;-79
2021/05/03 12:13:20;;;;;;;5.40;2.97;;;;;;;14.33;55.77;100875.28;5244508;28;20782;-78
2021/05/03 12:15:50;;;;;;;6.07;3.30;;;;;;;14.03;54.91;100874.00;5239850;28;20032;-79
2021/05/03 12:18:21;;;;;;;5.22;2.92;;;;;;;13.74;55.34;100866.59;5220929;28;20123;-79
2021/05/03 12:20:53;;;;;;;8.07;3.28;;;;;;;13.98;57.06;100868.09;5243061;28;20025;-78
2021/05/03 12:23:24;;;;;;;6.45;2.78;;;;;;;13.81;57.90;100863.63;5236989;28;20033;-78
2021/05/03 12:25:57;;;;;;;4.97;2.30;;;;;;;13.89;54.79;100865.91;5242362;28;20028;-79
2021/05/03 12:28:29;;;;;;;6.38;2.70;;;;;;;13.99;55.08;100868.06;5242515;28;20568;-79
2021/05/03 12:31:01;;;;;;;7.30;3.03;;;;;;;13.64;55.38;100855.63;5238251;28;20025;-78
2021/05/03 12:33:36;;;;;;;8.15;2.78;;;;;;;13.98;55.31;100854.97;5234345;28;20090;-78